createdAt,value
2023-04-22T00:00:55.914Z,19.58
2023-04-22T00:05:59.796Z,18.98
2023-04-22T00:11:03.704Z,18.48
2023-04-22T00:16:09.537Z,17.92
2023-04-22T00:21:13.382Z,17.52
2023-04-22T00:26:17.113Z,17.92
2023-04-22T00:31:22.370Z,19.65
2023-04-22T00:36:26.280Z,18.95
2023-04-22T00:41:31.078Z,16.05
2023-04-22T00:46:37.992Z,16.50
2023-04-22T00:51:41.761Z,16.05
2023-04-22T00:56:46.720Z,17.10
2023-04-22T01:01:52.389Z,18.45
2023-04-22T01:06:56.165Z,18.37
2023-04-22T01:11:59.887Z,19.37
2023-04-22T01:17:05.184Z,19.95
2023-04-22T01:22:09.384Z,18.52
2023-04-22T01:27:14.580Z,19.73
2023-04-22T01:32:18.539Z,25.92
2023-04-22T01:37:22.760Z,27.50
2023-04-22T01:42:28.130Z,29.80
2023-04-22T01:47:31.890Z,31.27
2023-04-22T01:52:36.635Z,31.58
2023-04-22T01:57:42.005Z,29.02
2023-04-22T02:02:45.877Z,28.33
2023-04-22T02:07:53.124Z,28.80
2023-04-22T02:12:58.624Z,28.35
2023-04-22T02:18:02.570Z,26.87
2023-04-22T02:23:06.558Z,27.17
2023-04-22T02:28:11.644Z,26.58
2023-04-22T02:33:15.496Z,29.33
2023-04-22T02:38:19.854Z,26.55
2023-04-22T02:43:25.083Z,25.52
2023-04-22T02:48:28.792Z,27.90
2023-04-22T02:53:32.621Z,26.92
2023-04-22T02:58:37.773Z,27.05
2023-04-22T03:03:41.875Z,29.08
2023-04-22T03:08:46.246Z,29.05
2023-04-22T03:13:51.305Z,32.40
2023-04-22T03:18:55.101Z,31.10
2023-04-22T03:23:58.900Z,31.98
2023-04-22T03:29:05.259Z,30.50
2023-04-22T03:34:09.381Z,29.27
2023-04-22T03:39:13.576Z,28.55
2023-04-22T03:44:19.443Z,29.25
2023-04-22T03:49:24.137Z,29.30
2023-04-22T03:54:28.038Z,28.87
2023-04-22T03:59:33.698Z,28.92
2023-04-22T04:04:38.241Z,27.25
2023-04-22T04:09:43.671Z,28.35
2023-04-22T04:14:49.276Z,27.40
2023-04-22T04:19:54.406Z,27.35
2023-04-22T04:24:58.483Z,31.35
2023-04-22T04:30:04.720Z,30.12
2023-04-22T04:35:12.958Z,31.40
2023-04-22T04:40:17.598Z,30.55
2023-04-22T04:45:24.400Z,31.90
2023-04-22T04:50:28.840Z,31.55
2023-04-22T04:55:33.318Z,30.23
2023-04-22T05:00:39.337Z,30.15
2023-04-22T05:05:43.777Z,30.92
2023-04-22T05:10:47.693Z,31.65
2023-04-22T05:15:55.055Z,33.08
2023-04-22T05:20:59.802Z,33.92
2023-04-22T05:26:03.581Z,31.65
2023-04-22T05:31:09.042Z,31.62
2023-04-22T05:36:13.510Z,29.65
2023-04-22T05:41:18.178Z,29.58
2023-04-22T05:46:24.729Z,29.90
2023-04-22T05:51:28.652Z,28.55
2023-04-22T05:56:32.888Z,28.83
2023-04-22T06:01:38.851Z,25.98
2023-04-22T06:06:43.205Z,25.62
2023-04-22T06:11:50.132Z,24.95
2023-04-22T06:16:55.195Z,25.10
2023-04-22T06:21:59.109Z,25.80
2023-04-22T06:27:03.409Z,24.85
2023-04-22T06:32:08.494Z,25.42
2023-04-22T06:37:12.263Z,25.50
2023-04-22T06:42:16.142Z,25.35
2023-04-22T06:47:24.593Z,24.37
2023-04-22T06:52:28.792Z,26.40
2023-04-22T06:57:33.454Z,23.10
2023-04-22T07:02:38.631Z,22.45
2023-04-22T07:07:42.523Z,23.55
2023-04-22T07:12:48.287Z,21.55
2023-04-22T07:17:53.571Z,17.17
2023-04-22T07:22:57.445Z,18.08
2023-04-22T07:28:01.163Z,15.50
2023-04-22T07:33:06.265Z,17.23
2023-04-22T07:38:11.156Z,15.25
2023-04-22T07:43:16.562Z,15.10
2023-04-22T07:48:21.688Z,14.65
2023-04-22T07:53:25.546Z,10.93
2023-04-22T07:58:29.314Z,11.77
2023-04-22T08:03:34.548Z,11.98
2023-04-22T08:08:38.368Z,11.18
2023-04-22T08:13:42.099Z,11.60
2023-04-22T08:18:47.177Z,11.48
2023-04-22T08:23:50.879Z,11.73
2023-04-22T08:28:54.703Z,11.20
2023-04-22T08:33:59.809Z,12.63
2023-04-22T08:39:03.538Z,10.32
2023-04-22T08:44:09.296Z,10.55
2023-04-22T08:49:15.898Z,11.02
2023-04-22T08:54:19.807Z,9.43
2023-04-22T08:59:24.528Z,10.65
2023-04-22T09:04:30.410Z,9.52
2023-04-22T09:09:35.167Z,9.73
2023-04-22T09:14:40.646Z,10.88
2023-04-22T09:19:46.190Z,9.77
2023-04-22T09:24:51.869Z,8.65
2023-04-22T09:29:55.746Z,8.65
2023-04-22T09:35:02.310Z,8.27
2023-04-22T09:40:08.743Z,8.23
2023-04-22T09:45:12.705Z,8.30
2023-04-22T09:50:21.308Z,7.28
2023-04-22T09:55:26.364Z,7.25
2023-04-22T10:00:31.679Z,7.47
2023-04-22T10:05:37.695Z,7.90
2023-04-22T10:10:42.045Z,7.75
2023-04-22T10:15:51.588Z,7.85
2023-04-22T10:20:58.936Z,7.85
2023-04-22T10:26:02.797Z,6.93
2023-04-22T10:31:08.123Z,6.20
2023-04-22T10:36:21.222Z,6.40
2023-04-22T10:41:26.067Z,7.18
2023-04-22T10:47:01.389Z,7.80
2023-04-22T10:52:09.363Z,7.30
2023-04-22T11:02:19.182Z,8.60
2023-04-22T11:07:35.654Z,8.85
2023-04-22T11:12:45.864Z,9.23
2023-04-22T11:17:52.741Z,9.80
2023-04-22T11:23:01.389Z,9.65
2023-04-22T11:28:05.230Z,11.12
2023-04-22T11:33:09.574Z,11.32
2023-04-22T11:38:15.389Z,11.35
2023-04-22T11:43:19.642Z,11.45
2023-04-22T11:48:25.822Z,12.05
2023-04-22T11:53:31.108Z,11.73
2023-04-22T11:58:34.884Z,11.43
2023-04-22T12:03:38.946Z,11.73
2023-04-22T12:08:46.640Z,13.70
2023-04-22T12:13:51.160Z,12.93
2023-04-22T12:18:56.209Z,13.20
2023-04-22T12:24:04.941Z,13.62
2023-04-22T12:29:09.123Z,11.80
2023-04-22T12:34:13.062Z,10.77
2023-04-22T12:39:18.966Z,11.48
2023-04-22T12:44:25.066Z,12.50
2023-04-22T12:49:29.201Z,12.25
2023-04-22T12:54:34.813Z,11.98
2023-04-22T12:59:38.982Z,12.88
2023-04-22T13:04:43.296Z,13.15
2023-04-22T13:09:48.594Z,13.32
2023-04-22T13:14:52.415Z,14.48
2023-04-22T13:19:56.553Z,14.27
2023-04-22T13:25:01.780Z,13.52
2023-04-22T13:30:08.099Z,13.52
2023-04-22T13:35:11.902Z,13.62
2023-04-22T13:40:17.327Z,14.10
2023-04-22T13:45:21.355Z,13.45
2023-04-22T13:50:25.550Z,14.63
2023-04-22T13:55:31.455Z,15.07
2023-04-22T14:00:36.098Z,14.35
2023-04-22T14:05:40.222Z,13.68
2023-04-22T14:10:45.382Z,13.93
2023-04-22T14:15:50.521Z,15.77
2023-04-22T14:20:54.619Z,17.35
2023-04-22T14:26:00.254Z,24.48
2023-04-22T14:31:04.337Z,20.33
2023-04-22T14:36:08.650Z,18.75
2023-04-22T14:41:14.412Z,21.87
2023-04-22T14:46:18.251Z,23.67
2023-04-22T14:51:22.225Z,20.23
2023-04-22T14:56:27.692Z,24.48
2023-04-22T15:01:32.408Z,27.85
2023-04-22T15:06:36.380Z,25.23
2023-04-22T15:11:41.653Z,26.60
2023-04-22T15:16:45.555Z,29.63
2023-04-22T15:21:49.384Z,36.13
2023-04-22T15:26:55.322Z,33.10
2023-04-22T15:31:59.197Z,30.15
2023-04-22T15:37:02.993Z,41.85
2023-04-22T15:42:08.087Z,33.20
2023-04-22T15:47:12.150Z,31.83
2023-04-22T15:52:17.588Z,27.67
2023-04-22T15:57:22.797Z,27.00
2023-04-22T16:02:26.798Z,24.20
2023-04-22T16:07:30.749Z,23.62
2023-04-22T16:12:35.984Z,22.37
2023-04-22T16:17:39.950Z,23.62
2023-04-22T16:22:43.758Z,41.95
2023-04-22T16:27:48.977Z,28.65
2023-04-22T16:32:52.999Z,37.58
2023-04-22T16:37:56.865Z,30.67
2023-04-22T16:43:05.158Z,29.25
2023-04-22T16:48:08.917Z,28.52
2023-04-22T16:53:12.924Z,29.45
2023-04-22T16:58:17.976Z,28.12
2023-04-22T17:03:22.444Z,34.63
2023-04-22T17:08:26.593Z,22.70
2023-04-22T17:13:31.730Z,27.10
2023-04-22T17:18:35.737Z,39.60
2023-04-22T17:23:39.625Z,28.30
2023-04-22T17:28:44.907Z,25.95
2023-04-22T17:33:48.833Z,26.33
2023-04-22T17:38:52.653Z,22.98
2023-04-22T17:43:59.145Z,23.15
2023-04-22T17:49:03.256Z,22.05
2023-04-22T17:54:07.520Z,24.63
2023-04-22T17:59:12.742Z,25.70
2023-04-22T18:04:16.562Z,26.23
2023-04-22T18:09:20.395Z,28.83
2023-04-22T18:14:26.697Z,26.35
2023-04-22T18:19:30.700Z,32.58
2023-04-22T18:24:34.626Z,26.10
2023-04-22T18:29:39.885Z,27.55
2023-04-22T18:34:43.862Z,28.50
2023-04-22T18:39:47.799Z,29.40
2023-04-22T18:44:52.926Z,34.40
2023-04-22T18:49:57.417Z,36.30
2023-04-22T18:55:01.216Z,33.95
2023-04-22T19:00:08.285Z,36.03
2023-04-22T19:05:13.593Z,36.33
2023-04-22T19:10:17.477Z,32.35
2023-04-22T19:15:22.567Z,39.20
2023-04-22T19:20:26.773Z,34.47
2023-04-22T19:25:30.658Z,40.28
2023-04-22T19:30:36.049Z,34.58
2023-04-22T19:35:39.998Z,35.22
2023-04-22T19:40:43.792Z,33.15
2023-04-22T19:45:48.809Z,33.80
2023-04-22T19:50:52.709Z,35.80
2023-04-22T19:55:56.663Z,38.20
2023-04-22T20:01:02.265Z,37.85
2023-04-22T20:06:07.138Z,39.17
2023-04-22T20:11:12.554Z,42.50
2023-04-22T20:16:19.576Z,45.25
2023-04-22T20:21:24.106Z,47.17
2023-04-22T20:26:28.344Z,45.47
2023-04-22T20:31:34.521Z,44.10
2023-04-22T20:36:39.809Z,44.90
2023-04-22T20:41:44.515Z,52.92
2023-04-22T20:46:49.985Z,59.03
2023-04-22T20:51:54.227Z,58.55
2023-04-22T20:56:59.010Z,55.83
2023-04-22T21:02:06.743Z,59.70
2023-04-22T21:07:14.334Z,62.60
2023-04-22T21:12:19.544Z,67.90
2023-04-22T21:17:29.098Z,67.30
2023-04-22T21:22:33.270Z,69.40
2023-04-22T21:27:37.954Z,70.30
2023-04-22T21:32:43.047Z,72.43
2023-04-22T21:37:47.002Z,70.53
2023-04-22T21:42:50.987Z,68.78
2023-04-22T21:47:56.060Z,64.10
2023-04-22T21:53:00.594Z,59.85
2023-04-22T21:58:04.395Z,61.88
2023-04-22T22:03:09.793Z,61.37
2023-04-22T22:08:14.413Z,60.58
2023-04-22T22:13:18.094Z,59.28
2023-04-22T22:18:23.135Z,58.95
2023-04-22T22:23:26.914Z,61.08
2023-04-22T22:28:30.672Z,56.78
2023-04-22T22:33:35.734Z,56.42
2023-04-22T22:38:39.492Z,54.58
2023-04-22T22:43:43.213Z,54.10
2023-04-22T22:48:48.787Z,54.50
2023-04-22T22:53:52.522Z,53.33
2023-04-22T22:58:56.338Z,50.08
2023-04-22T23:04:01.639Z,49.40
2023-04-22T23:09:05.889Z,49.35
2023-04-22T23:14:09.754Z,48.90
2023-04-22T23:19:15.807Z,45.75
2023-04-22T23:24:20.417Z,46.05
2023-04-22T23:29:25.141Z,44.40
2023-04-22T23:34:33.637Z,46.50
2023-04-22T23:39:37.378Z,43.53
2023-04-22T23:44:41.495Z,41.40
2023-04-22T23:49:46.719Z,41.63
2023-04-22T23:54:52.041Z,41.95
2023-04-22T23:59:56.230Z,40.63
